createdAt,value
2023-05-18T00:01:17.869Z,45.24
2023-05-18T00:03:47.525Z,45.60
2023-05-18T00:06:16.509Z,45.92
2023-05-18T00:08:44.849Z,45.90
2023-05-18T00:11:13.298Z,46.45
2023-05-18T00:13:41.769Z,45.82
2023-05-18T00:16:12.185Z,45.83
2023-05-18T00:18:42.063Z,45.68
2023-05-18T00:21:10.616Z,45.30
2023-05-18T00:23:39.736Z,45.04
2023-05-18T00:26:08.217Z,45.71
2023-05-18T00:28:36.604Z,45.57
2023-05-18T00:31:06.619Z,45.60
2023-05-18T00:33:35.116Z,45.58
2023-05-18T00:36:05.196Z,45.32
2023-05-18T00:38:33.860Z,45.58
2023-05-18T00:41:02.267Z,45.77
2023-05-18T00:43:30.771Z,45.26
2023-05-18T00:45:59.218Z,45.58
2023-05-18T00:48:27.813Z,45.34
2023-05-18T00:50:56.180Z,45.67
2023-05-18T00:53:26.580Z,45.61
2023-05-18T00:55:55.006Z,45.63
2023-05-18T00:58:23.615Z,46.29
2023-05-18T01:00:57.529Z,46.11
2023-05-18T01:03:26.454Z,45.81
2023-05-18T01:05:55.878Z,45.92
2023-05-18T01:08:27.727Z,46.18
2023-05-18T01:11:02.400Z,45.83
2023-05-18T01:13:42.318Z,45.52
2023-05-18T01:16:14.062Z,45.93
2023-05-18T01:18:49.316Z,46.46
2023-05-18T01:21:26.493Z,46.88
2023-05-18T01:24:06.060Z,46.88
2023-05-18T01:26:41.945Z,46.47
2023-05-18T01:29:11.686Z,46.47
2023-05-18T01:31:41.208Z,46.72
2023-05-18T01:34:10.017Z,47.21
2023-05-18T01:36:38.406Z,47.07
2023-05-18T01:39:07.425Z,47.09
2023-05-18T01:41:40.708Z,46.71
2023-05-18T01:44:17.520Z,45.78
2023-05-18T01:46:54.733Z,45.56
2023-05-18T01:49:32.306Z,45.09
2023-05-18T01:52:05.759Z,44.63
2023-05-18T01:54:35.811Z,44.58
2023-05-18T01:57:09.723Z,44.51
2023-05-18T01:59:39.156Z,44.71
2023-05-18T02:02:08.189Z,44.71
2023-05-18T02:04:37.943Z,44.95
2023-05-18T02:07:06.502Z,44.41
2023-05-18T02:09:34.949Z,44.70
2023-05-18T02:12:03.363Z,44.37
2023-05-18T02:14:33.953Z,44.83
2023-05-18T02:17:02.501Z,44.88
2023-05-18T02:19:31.788Z,44.80
2023-05-18T02:22:00.233Z,45.08
2023-05-18T02:24:28.979Z,45.09
2023-05-18T02:26:58.474Z,45.66
2023-05-18T02:29:27.005Z,45.57
2023-05-18T02:31:56.886Z,46.20
2023-05-18T02:34:27.694Z,46.09
2023-05-18T02:37:03.748Z,46.55
2023-05-18T02:39:34.077Z,46.57
2023-05-18T02:42:02.614Z,46.72
2023-05-18T02:44:31.134Z,46.52
2023-05-18T02:47:01.184Z,46.91
2023-05-18T02:49:29.680Z,46.98
2023-05-18T02:51:58.080Z,47.11
2023-05-18T02:54:26.551Z,47.21
2023-05-18T02:56:57.065Z,47.54
2023-05-18T02:59:37.846Z,47.12
2023-05-18T03:02:08.220Z,47.29
2023-05-18T03:04:37.973Z,47.17
2023-05-18T03:07:08.165Z,47.65
2023-05-18T03:09:36.684Z,47.44
2023-05-18T03:12:05.961Z,47.12
2023-05-18T03:14:34.428Z,47.15
2023-05-18T03:17:06.159Z,47.28
2023-05-18T03:19:36.816Z,47.19
2023-05-18T03:22:06.059Z,47.17
2023-05-18T03:24:40.880Z,46.84
2023-05-18T03:27:17.495Z,46.61
2023-05-18T03:29:47.509Z,46.48
2023-05-18T03:32:16.079Z,45.79
2023-05-18T03:34:47.813Z,46.15
2023-05-18T03:37:17.237Z,46.11
2023-05-18T03:39:46.235Z,46.83
2023-05-18T03:42:14.951Z,46.81
2023-05-18T03:44:43.657Z,46.80
2023-05-18T03:47:12.808Z,47.08
2023-05-18T03:49:41.455Z,47.55
2023-05-18T03:52:15.385Z,47.57
2023-05-18T03:54:44.367Z,47.14
2023-05-18T03:57:12.688Z,46.95
2023-05-18T03:59:41.234Z,47.59
2023-05-18T04:02:09.805Z,47.07
2023-05-18T04:04:42.059Z,47.32
2023-05-18T04:07:13.654Z,46.91
2023-05-18T04:09:44.432Z,46.71
2023-05-18T04:12:13.044Z,47.26
2023-05-18T04:14:42.614Z,47.34
2023-05-18T04:17:11.260Z,47.74
2023-05-18T04:19:39.767Z,47.72
2023-05-18T04:22:11.612Z,47.57
2023-05-18T04:24:41.446Z,47.04
2023-05-18T04:27:12.296Z,47.54
2023-05-18T04:29:44.576Z,47.76
2023-05-18T04:32:13.130Z,47.53
2023-05-18T04:34:42.689Z,47.34
2023-05-18T04:37:13.153Z,47.13
2023-05-18T04:39:42.394Z,47.46
2023-05-18T04:42:14.210Z,47.93
2023-05-18T04:44:43.906Z,47.53
2023-05-18T04:47:12.664Z,48.10
2023-05-18T04:49:41.173Z,48.10
2023-05-18T04:52:10.558Z,48.37
2023-05-18T04:54:41.343Z,49.00
2023-05-18T04:57:10.222Z,48.46
2023-05-18T04:59:38.775Z,47.93
2023-05-18T05:02:07.477Z,47.93
2023-05-18T05:04:36.033Z,47.39
2023-05-18T05:07:04.434Z,46.52
2023-05-18T05:09:32.802Z,47.37
2023-05-18T05:12:02.735Z,47.89
2023-05-18T05:14:31.285Z,47.96
2023-05-18T05:16:59.728Z,47.68
2023-05-18T05:19:29.152Z,47.27
2023-05-18T05:21:57.761Z,47.87
2023-05-18T05:24:26.418Z,48.30
2023-05-18T05:26:54.776Z,47.16
2023-05-18T05:29:26.555Z,47.58
2023-05-18T05:31:55.551Z,48.29
2023-05-18T05:34:24.190Z,48.13
2023-05-18T05:36:52.657Z,47.98
2023-05-18T05:39:21.043Z,47.74
2023-05-18T05:41:50.338Z,47.04
2023-05-18T05:44:18.866Z,47.01
2023-05-18T05:46:49.370Z,47.29
2023-05-18T05:49:18.248Z,47.13
2023-05-18T05:51:46.682Z,46.98
2023-05-18T05:54:15.768Z,46.96
2023-05-18T05:56:45.069Z,47.23
2023-05-18T05:59:14.502Z,46.52
2023-05-18T06:01:43.123Z,46.34
2023-05-18T06:04:13.442Z,45.45
2023-05-18T06:06:42.364Z,45.87
2023-05-18T06:09:11.886Z,45.59
2023-05-18T06:11:40.718Z,45.65
2023-05-18T06:14:09.552Z,46.14
2023-05-18T06:16:38.569Z,46.22
2023-05-18T06:19:07.219Z,45.75
2023-05-18T06:21:37.303Z,46.01
2023-05-18T06:24:06.472Z,45.70
2023-05-18T06:26:45.448Z,46.78
2023-05-18T06:29:28.363Z,46.52
2023-05-18T06:32:15.475Z,45.64
2023-05-18T06:34:47.436Z,44.91
2023-05-18T06:37:17.519Z,44.61
2023-05-18T06:39:45.999Z,44.52
2023-05-18T06:42:14.381Z,44.11
2023-05-18T06:44:52.795Z,43.85
2023-05-18T06:47:24.759Z,44.57
2023-05-18T06:49:53.268Z,45.17
2023-05-18T06:52:26.331Z,44.78
2023-05-18T06:54:56.275Z,45.22
2023-05-18T06:57:27.124Z,45.01
2023-05-18T06:59:57.105Z,45.15
2023-05-18T07:02:28.951Z,45.25
2023-05-18T07:04:59.409Z,44.66
2023-05-18T07:07:45.215Z,44.63
2023-05-18T07:10:16.330Z,44.55
2023-05-18T07:12:44.855Z,45.09
2023-05-18T07:15:13.387Z,44.68
2023-05-18T07:17:43.139Z,44.83
2023-05-18T07:20:11.947Z,44.90
2023-05-18T07:22:41.781Z,44.90
2023-05-18T07:25:14.209Z,45.18
2023-05-18T07:27:46.297Z,44.72
2023-05-18T07:30:15.458Z,44.51
2023-05-18T07:32:45.478Z,45.09
2023-05-18T07:35:16.914Z,44.93
2023-05-18T07:37:47.003Z,44.91
2023-05-18T07:40:15.483Z,44.74
2023-05-18T07:42:44.485Z,44.71
2023-05-18T07:45:13.617Z,44.40
2023-05-18T07:47:42.063Z,44.40
2023-05-18T07:50:11.446Z,44.25
2023-05-18T07:52:39.796Z,41.80
2023-05-18T07:55:10.405Z,42.94
2023-05-18T07:57:38.891Z,42.29
2023-05-18T08:00:10.431Z,41.55
2023-05-18T08:02:41.895Z,41.42
2023-05-18T08:05:11.177Z,41.65
2023-05-18T08:07:39.785Z,41.15
2023-05-18T08:10:10.427Z,41.85
2023-05-18T08:12:39.865Z,41.35
2023-05-18T08:15:09.984Z,40.57
2023-05-18T08:17:38.405Z,41.17
2023-05-18T08:20:08.494Z,41.50
2023-05-18T08:22:36.890Z,41.88
2023-05-18T08:25:05.763Z,40.56
2023-05-18T08:27:35.597Z,40.41
2023-05-18T08:30:04.222Z,40.83
2023-05-18T08:32:33.134Z,40.50
2023-05-18T08:35:01.569Z,40.04
2023-05-18T08:37:31.274Z,40.49
2023-05-18T08:40:00.898Z,40.40
2023-05-18T08:42:48.396Z,39.38
2023-05-18T08:45:25.446Z,39.69
2023-05-18T08:47:57.422Z,40.04
2023-05-18T08:50:27.716Z,40.25
2023-05-18T08:52:57.520Z,39.71
2023-05-18T08:55:27.779Z,39.31
2023-05-18T08:58:00.475Z,40.26
2023-05-18T09:00:30.905Z,39.95
2023-05-18T09:03:00.043Z,40.26
2023-05-18T09:05:28.817Z,39.97
2023-05-18T09:07:57.918Z,39.45
2023-05-18T09:10:27.270Z,39.61
2023-05-18T09:12:58.010Z,39.28
2023-05-18T09:15:27.878Z,38.97
2023-05-18T09:17:57.722Z,38.73
2023-05-18T09:20:27.581Z,39.31
2023-05-18T09:22:57.068Z,38.80
2023-05-18T09:25:26.177Z,38.34
2023-05-18T09:27:55.882Z,38.31
2023-05-18T09:30:26.551Z,38.00
2023-05-18T09:32:55.125Z,38.13
2023-05-18T09:35:26.701Z,37.43
2023-05-18T09:37:55.759Z,38.11
2023-05-18T09:40:30.830Z,37.75
2023-05-18T09:42:59.254Z,37.37
2023-05-18T09:45:28.917Z,37.49
2023-05-18T09:47:57.664Z,36.87
2023-05-18T09:50:27.557Z,36.31
2023-05-18T09:52:57.661Z,36.31
2023-05-18T09:55:26.216Z,36.36
2023-05-18T09:57:54.680Z,36.17
2023-05-18T10:00:25.578Z,35.90
2023-05-18T10:02:54.271Z,36.10
2023-05-18T10:05:23.756Z,35.79
2023-05-18T10:07:54.193Z,35.52
2023-05-18T10:10:24.692Z,35.82
2023-05-18T10:12:53.694Z,37.29
2023-05-18T10:15:24.734Z,37.57
2023-05-18T10:17:58.049Z,37.74
2023-05-18T10:20:27.104Z,37.65
2023-05-18T10:22:59.987Z,37.65
2023-05-18T10:25:30.539Z,37.74
2023-05-18T10:28:05.433Z,36.95
2023-05-18T10:30:36.200Z,36.78
2023-05-18T10:33:14.001Z,36.60
2023-05-18T10:35:50.823Z,37.79
2023-05-18T10:38:25.130Z,36.66
2023-05-18T10:40:55.251Z,37.37
2023-05-18T10:43:27.768Z,37.28
2023-05-18T10:45:58.183Z,37.63
2023-05-18T10:48:29.158Z,36.32
2023-05-18T10:50:59.481Z,36.72
2023-05-18T10:53:30.686Z,37.20
2023-05-18T10:55:59.207Z,37.25
2023-05-18T10:58:29.248Z,36.88
2023-05-18T11:01:00.039Z,36.84
2023-05-18T11:03:29.200Z,36.75
2023-05-18T11:06:08.975Z,36.50
2023-05-18T11:08:47.870Z,36.83
2023-05-18T11:11:19.282Z,36.63
2023-05-18T11:13:50.691Z,36.60
2023-05-18T11:16:20.112Z,35.77
2023-05-18T11:18:49.582Z,35.87
2023-05-18T11:21:22.781Z,35.50
2023-05-18T11:24:24.254Z,35.82
2023-05-18T11:26:54.352Z,35.24
2023-05-18T11:29:25.911Z,34.76
2023-05-18T11:31:56.303Z,35.04
2023-05-18T11:34:47.829Z,35.37
2023-05-18T11:37:17.219Z,34.87
2023-05-18T11:39:59.769Z,35.69
2023-05-18T11:42:34.499Z,35.57
2023-05-18T11:45:08.306Z,35.35
2023-05-18T11:47:38.121Z,35.67
2023-05-18T11:50:09.176Z,36.18
2023-05-18T11:52:47.267Z,36.51
2023-05-18T11:55:19.453Z,36.69
2023-05-18T11:57:52.536Z,36.10
2023-05-18T12:00:22.439Z,36.75
2023-05-18T12:02:52.926Z,36.75
2023-05-18T12:05:22.452Z,37.06
2023-05-18T12:07:54.895Z,37.45
2023-05-18T12:10:25.200Z,37.02
2023-05-18T12:12:54.261Z,37.12
2023-05-18T12:15:24.119Z,37.02
2023-05-18T12:17:53.240Z,36.93
2023-05-18T12:20:25.299Z,37.36
2023-05-18T12:22:56.071Z,37.05
2023-05-18T12:25:28.130Z,37.17
2023-05-18T12:27:57.958Z,37.65
2023-05-18T12:30:35.273Z,37.84
2023-05-18T12:33:05.167Z,37.44
2023-05-18T12:35:34.053Z,38.53
2023-05-18T12:38:03.086Z,37.86
2023-05-18T12:40:44.867Z,37.13
2023-05-18T12:43:14.194Z,38.14
2023-05-18T12:45:45.734Z,37.91
2023-05-18T12:48:15.601Z,37.75
2023-05-18T12:50:48.917Z,37.32
2023-05-18T12:53:18.295Z,36.85
2023-05-18T12:55:57.891Z,36.87
2023-05-18T12:58:26.730Z,37.11
2023-05-18T13:00:55.169Z,37.65
2023-05-18T13:03:24.641Z,37.52
2023-05-18T13:06:04.785Z,37.14
2023-05-18T13:08:35.632Z,37.52
2023-05-18T13:11:13.434Z,37.98
2023-05-18T13:14:04.756Z,38.05
2023-05-18T13:16:35.039Z,38.59
2023-05-18T13:19:05.402Z,39.28
2023-05-18T13:21:34.361Z,39.69
2023-05-18T13:24:03.276Z,39.35
2023-05-18T13:26:33.292Z,38.48
2023-05-18T13:29:01.846Z,38.22
2023-05-18T13:31:30.754Z,39.17
2023-05-18T13:33:59.262Z,38.67
2023-05-18T13:36:29.775Z,39.98
2023-05-18T13:38:58.373Z,40.00
2023-05-18T13:41:27.314Z,39.63
2023-05-18T13:43:57.221Z,39.38
2023-05-18T13:46:26.080Z,39.95
2023-05-18T13:48:54.581Z,39.57
2023-05-18T13:51:23.024Z,40.16
2023-05-18T13:53:51.501Z,40.63
2023-05-18T13:56:19.987Z,40.60
2023-05-18T13:58:48.349Z,40.20
2023-05-18T14:01:18.800Z,40.06
2023-05-18T14:03:47.501Z,39.58
2023-05-18T14:06:15.983Z,39.79
2023-05-18T14:08:44.416Z,39.99
2023-05-18T14:11:12.760Z,40.20
2023-05-18T14:13:41.276Z,40.09
2023-05-18T14:16:10.002Z,40.16
2023-05-18T14:18:39.923Z,40.69
2023-05-18T14:21:08.404Z,41.19
2023-05-18T14:23:36.935Z,40.91
2023-05-18T14:26:05.421Z,40.06
2023-05-18T14:28:33.857Z,40.54
2023-05-18T14:31:02.317Z,40.96
2023-05-18T14:33:30.816Z,40.67
2023-05-18T14:36:01.043Z,40.91
2023-05-18T14:38:29.509Z,40.80
2023-05-18T14:40:57.899Z,40.47
2023-05-18T14:43:26.362Z,41.12
2023-05-18T14:46:07.330Z,40.61
2023-05-18T14:48:37.384Z,40.19
2023-05-18T14:51:07.454Z,40.25
2023-05-18T14:53:35.947Z,40.27
2023-05-18T14:56:08.698Z,40.05
2023-05-18T14:58:37.729Z,40.28
2023-05-18T15:01:06.360Z,39.99
2023-05-18T15:03:35.092Z,40.05
2023-05-18T15:06:03.670Z,41.62
2023-05-18T15:08:34.530Z,42.45
2023-05-18T15:11:03.029Z,42.64
2023-05-18T15:13:32.034Z,42.29
2023-05-18T15:16:00.798Z,43.20
2023-05-18T15:18:29.484Z,43.43
2023-05-18T15:20:57.920Z,43.17
2023-05-18T15:23:27.168Z,42.69
2023-05-18T15:25:56.976Z,43.44
2023-05-18T15:28:25.503Z,43.01
2023-05-18T15:30:54.629Z,43.35
2023-05-18T15:33:23.173Z,43.96
2023-05-18T15:35:51.791Z,45.19
2023-05-18T15:38:20.244Z,45.50
2023-05-18T15:40:50.487Z,45.94
2023-05-18T15:43:20.579Z,46.37
2023-05-18T15:45:49.014Z,46.12
2023-05-18T15:48:17.462Z,46.24
2023-05-18T15:50:46.411Z,46.68
2023-05-18T15:53:16.088Z,46.75
2023-05-18T15:55:44.661Z,46.39
2023-05-18T15:58:14.824Z,46.25
2023-05-18T16:00:44.688Z,46.59
2023-05-18T16:03:14.177Z,47.02
2023-05-18T16:05:42.722Z,47.03
2023-05-18T16:08:11.144Z,47.53
2023-05-18T16:10:39.544Z,47.17
2023-05-18T16:13:08.063Z,47.20
2023-05-18T16:15:38.418Z,47.68
2023-05-18T16:18:08.543Z,47.83
2023-05-18T16:20:36.953Z,48.14
2023-05-18T16:23:06.374Z,48.31
2023-05-18T16:25:34.829Z,48.48
2023-05-18T16:28:03.527Z,49.02
2023-05-18T16:30:32.210Z,49.20
2023-05-18T16:33:00.924Z,49.56
2023-05-18T16:35:31.980Z,49.73
2023-05-18T16:38:00.696Z,49.97
2023-05-18T16:40:29.144Z,50.64
2023-05-18T16:42:57.703Z,50.96
2023-05-18T16:45:27.322Z,50.82
2023-05-18T16:47:55.759Z,50.92
2023-05-18T16:50:24.414Z,50.95
2023-05-18T16:52:54.285Z,51.16
2023-05-18T16:55:23.841Z,51.41
2023-05-18T16:57:52.469Z,51.57
2023-05-18T17:00:22.118Z,51.74
2023-05-18T17:02:52.754Z,52.00
2023-05-18T17:05:23.077Z,52.07
2023-05-18T17:07:54.189Z,52.49
2023-05-18T17:10:22.818Z,53.23
2023-05-18T17:12:51.844Z,53.67
2023-05-18T17:15:21.265Z,54.00
2023-05-18T17:17:49.682Z,54.47
2023-05-18T17:20:18.232Z,54.81
2023-05-18T17:22:46.650Z,55.17
2023-05-18T17:25:16.533Z,55.77
2023-05-18T17:27:45.036Z,55.79
2023-05-18T17:30:13.807Z,56.41
2023-05-18T17:32:42.315Z,56.42
2023-05-18T17:35:13.964Z,56.36
2023-05-18T17:37:42.819Z,56.86
2023-05-18T17:40:11.831Z,57.10
2023-05-18T17:42:41.832Z,57.21
2023-05-18T17:45:11.540Z,57.49
2023-05-18T17:47:41.760Z,57.53
2023-05-18T17:50:10.737Z,57.55
2023-05-18T17:52:39.079Z,57.50
2023-05-18T17:55:08.771Z,57.63
2023-05-18T17:57:37.259Z,57.67
2023-05-18T18:00:09.383Z,57.58
2023-05-18T18:02:40.060Z,57.69
2023-05-18T18:05:09.136Z,57.90
2023-05-18T18:07:37.556Z,57.89
2023-05-18T18:10:06.944Z,57.88
2023-05-18T18:12:35.369Z,58.14
2023-05-18T18:15:03.892Z,58.24
2023-05-18T18:17:33.840Z,58.42
2023-05-18T18:20:02.362Z,58.47
2023-05-18T18:22:31.052Z,58.49
2023-05-18T18:25:00.219Z,58.28
2023-05-18T18:27:29.658Z,58.13
2023-05-18T18:29:58.087Z,58.08
2023-05-18T18:32:26.731Z,57.79
2023-05-18T18:34:56.610Z,57.86
2023-05-18T18:37:25.100Z,58.04
2023-05-18T18:39:53.527Z,58.03
2023-05-18T18:42:22.048Z,58.23
2023-05-18T18:44:53.021Z,58.58
2023-05-18T18:47:21.472Z,58.79
2023-05-18T18:49:49.806Z,59.33
2023-05-18T18:52:19.746Z,59.90
2023-05-18T18:54:48.224Z,59.99
2023-05-18T18:57:16.777Z,60.25
2023-05-18T18:59:45.201Z,60.64
2023-05-18T19:02:13.795Z,61.00
2023-05-18T19:04:42.346Z,61.39
2023-05-18T19:07:10.713Z,61.90
2023-05-18T19:09:40.583Z,61.95
2023-05-18T19:12:09.898Z,62.20
2023-05-18T19:14:38.470Z,62.29
2023-05-18T19:17:06.898Z,62.57
2023-05-18T19:19:37.336Z,62.93
2023-05-18T19:22:06.203Z,62.94
2023-05-18T19:24:34.686Z,62.84
2023-05-18T19:27:04.880Z,62.52
2023-05-18T19:29:36.700Z,62.79
2023-05-18T19:32:08.119Z,62.49
2023-05-18T19:34:36.702Z,62.46
2023-05-18T19:37:05.266Z,62.39
2023-05-18T19:39:33.652Z,62.36
2023-05-18T19:42:02.074Z,62.34
2023-05-18T19:44:32.183Z,62.32
2023-05-18T19:47:01.065Z,62.35
2023-05-18T19:49:29.851Z,62.10
2023-05-18T19:51:58.381Z,62.11
2023-05-18T19:54:27.212Z,61.88
2023-05-18T19:56:55.878Z,61.65
2023-05-18T19:59:24.740Z,61.31
2023-05-18T20:01:57.834Z,61.13
2023-05-18T20:04:28.737Z,61.17
2023-05-18T20:06:58.324Z,60.56
2023-05-18T20:09:26.879Z,60.55
2023-05-18T20:11:56.263Z,59.97
2023-05-18T20:14:24.818Z,59.21
2023-05-18T20:16:56.350Z,59.16
2023-05-18T20:19:25.463Z,59.03
2023-05-18T20:21:53.899Z,58.97
2023-05-18T20:24:22.421Z,58.60
2023-05-18T20:26:50.953Z,56.34
2023-05-18T20:29:19.378Z,57.25
2023-05-18T20:31:48.126Z,58.10
2023-05-18T20:34:19.513Z,57.92
2023-05-18T20:36:48.061Z,57.97
2023-05-18T20:39:16.861Z,58.40
2023-05-18T20:41:45.431Z,58.15
2023-05-18T20:44:17.810Z,57.89
2023-05-18T20:46:48.281Z,57.90
2023-05-18T20:49:17.141Z,58.10
2023-05-18T20:51:46.907Z,57.82
2023-05-18T20:54:15.598Z,57.63
2023-05-18T20:56:43.906Z,57.61
2023-05-18T20:59:12.803Z,57.48
2023-05-18T21:01:42.928Z,57.23
2023-05-18T21:04:13.031Z,57.19
2023-05-18T21:06:44.246Z,57.06
2023-05-18T21:09:14.326Z,56.86
2023-05-18T21:11:42.891Z,57.08
2023-05-18T21:14:11.340Z,56.83
2023-05-18T21:16:40.522Z,56.76
2023-05-18T21:19:09.262Z,56.69
2023-05-18T21:21:37.718Z,56.74
2023-05-18T21:24:06.482Z,56.64
2023-05-18T21:26:36.334Z,56.51
2023-05-18T21:29:05.019Z,56.82
2023-05-18T21:31:33.539Z,56.91
2023-05-18T21:34:02.137Z,56.99
2023-05-18T21:36:34.360Z,57.29
2023-05-18T21:39:04.128Z,57.24
2023-05-18T21:41:34.208Z,57.31
2023-05-18T21:44:04.090Z,57.63
2023-05-18T21:46:32.788Z,57.66
2023-05-18T21:49:02.577Z,57.63
2023-05-18T21:51:32.508Z,57.95
2023-05-18T21:54:02.440Z,57.96
2023-05-18T21:56:31.055Z,58.08
2023-05-18T21:58:59.457Z,58.21
2023-05-18T22:01:30.015Z,58.22
2023-05-18T22:03:58.504Z,58.71
2023-05-18T22:06:26.910Z,59.12
2023-05-18T22:08:55.416Z,59.14
2023-05-18T22:11:24.633Z,59.29
2023-05-18T22:13:53.090Z,59.66
2023-05-18T22:16:21.761Z,60.10
2023-05-18T22:18:51.630Z,60.45
2023-05-18T22:21:20.453Z,60.75
2023-05-18T22:23:48.799Z,60.60
2023-05-18T22:26:17.333Z,61.18
2023-05-18T22:28:45.779Z,61.67
2023-05-18T22:31:14.277Z,62.04
2023-05-18T22:33:42.810Z,62.40
2023-05-18T22:36:12.772Z,62.47
2023-05-18T22:38:43.961Z,62.97
2023-05-18T22:41:12.407Z,63.00
2023-05-18T22:43:40.981Z,63.13
2023-05-18T22:46:09.870Z,63.37
2023-05-18T22:48:39.681Z,63.37
2023-05-18T22:51:08.646Z,63.39
2023-05-18T22:53:38.391Z,63.39
2023-05-18T22:56:07.507Z,63.62
2023-05-18T22:58:35.896Z,63.41
2023-05-18T23:01:04.472Z,63.47
2023-05-18T23:03:32.923Z,63.85
2023-05-18T23:06:03.269Z,63.79
2023-05-18T23:08:36.874Z,63.87
2023-05-18T23:11:07.045Z,64.12
2023-05-18T23:13:37.829Z,64.22
2023-05-18T23:16:10.517Z,64.14
2023-05-18T23:18:39.283Z,64.61
2023-05-18T23:21:09.084Z,64.27
2023-05-18T23:23:37.545Z,64.70
2023-05-18T23:26:07.484Z,64.33
2023-05-18T23:28:35.943Z,64.46
2023-05-18T23:31:04.404Z,64.35
2023-05-18T23:33:33.626Z,63.79
2023-05-18T23:36:04.046Z,63.64
2023-05-18T23:38:38.149Z,63.58
2023-05-18T23:41:09.748Z,63.19
2023-05-18T23:43:38.944Z,62.94
2023-05-18T23:46:10.505Z,63.24
2023-05-18T23:48:39.704Z,62.88
2023-05-18T23:51:11.218Z,62.50
2023-05-18T23:53:40.122Z,62.21
2023-05-18T23:56:12.457Z,62.04
2023-05-18T23:58:43.027Z,61.79
